sensor_id;sensor_type;location;lat;lon;timestamp;pressure;altitude;pressure_sealevel;temperature;humidity
55070;BME280;40967;52.070;8.596;2023-07-13T00:00:38;100281.66;;;18.07;67.56
55070;BME280;40967;52.070;8.596;2023-07-13T00:03:04;100261.97;;;17.88;67.68
55070;BME280;40967;52.070;8.596;2023-07-13T00:05:30;100281.50;;;17.95;67.68
55070;BME280;40967;52.070;8.596;2023-07-13T00:07:56;100265.22;;;17.73;68.29
55070;BME280;40967;52.070;8.596;2023-07-13T00:10:22;100292.81;;;17.85;68.54
55070;BME280;40967;52.070;8.596;2023-07-13T00:12:47;100287.81;;;17.79;68.72
55070;BME280;40967;52.070;8.596;2023-07-13T00:15:18;100298.47;;;17.80;68.96
55070;BME280;40967;52.070;8.596;2023-07-13T00:17:48;100300.72;;;17.78;69.03
55070;BME280;40967;52.070;8.596;2023-07-13T00:20:13;100294.41;;;17.69;69.18
55070;BME280;40967;52.070;8.596;2023-07-13T00:22:39;100296.66;;;17.67;68.88
55070;BME280;40967;52.070;8.596;2023-07-13T00:25:05;100298.78;;;17.70;68.66
55070;BME280;40967;52.070;8.596;2023-07-13T00:27:30;100293.75;;;17.64;68.60
55070;BME280;40967;52.070;8.596;2023-07-13T00:29:57;100317.50;;;17.68;68.81
55070;BME280;40967;52.070;8.596;2023-07-13T00:32:22;100313.13;;;17.67;68.43
55070;BME280;40967;52.070;8.596;2023-07-13T00:34:50;100264.34;;;17.39;68.46
55070;BME280;40967;52.070;8.596;2023-07-13T00:37:15;100314.28;;;17.66;68.60
55070;BME280;40967;52.070;8.596;2023-07-13T00:39:41;100296.00;;;17.53;68.63
55070;BME280;40967;52.070;8.596;2023-07-13T00:42:06;100309.25;;;17.51;68.72
55070;BME280;40967;52.070;8.596;2023-07-13T00:44:32;100314.59;;;17.56;68.97
55070;BME280;40967;52.070;8.596;2023-07-13T00:46:57;100298.28;;;17.51;69.25
55070;BME280;40967;52.070;8.596;2023-07-13T00:49:26;100300.94;;;17.43;69.39
55070;BME280;40967;52.070;8.596;2023-07-13T00:51:58;100298.03;;;17.39;69.66
55070;BME280;40967;52.070;8.596;2023-07-13T00:54:28;100317.00;;;17.49;69.95
55070;BME280;40967;52.070;8.596;2023-07-13T00:56:58;100316.78;;;17.46;70.68
55070;BME280;40967;52.070;8.596;2023-07-13T00:59:24;100287.88;;;17.31;71.14
55070;BME280;40967;52.070;8.596;2023-07-13T01:01:51;100286.28;;;17.30;71.38
55070;BME280;40967;52.070;8.596;2023-07-13T01:04:17;100293.38;;;17.40;70.70
55070;BME280;40967;52.070;8.596;2023-07-13T01:06:43;100286.44;;;17.42;70.60
55070;BME280;40967;52.070;8.596;2023-07-13T01:09:11;100276.59;;;17.41;69.82
55070;BME280;40967;52.070;8.596;2023-07-13T01:11:37;100301.03;;;17.51;69.97
55070;BME280;40967;52.070;8.596;2023-07-13T01:14:03;100308.13;;;17.61;69.83
55070;BME280;40967;52.070;8.596;2023-07-13T01:16:31;100281.47;;;17.44;69.92
55070;BME280;40967;52.070;8.596;2023-07-13T01:18:57;100300.38;;;17.54;70.78
55070;BME280;40967;52.070;8.596;2023-07-13T01:21:23;100281.28;;;17.32;70.76
55070;BME280;40967;52.070;8.596;2023-07-13T01:23:49;100306.81;;;17.50;71.25
55070;BME280;40967;52.070;8.596;2023-07-13T01:26:14;100309.09;;;17.48;71.38
55070;BME280;40967;52.070;8.596;2023-07-13T01:28:39;100268.34;;;17.24;71.62
55070;BME280;40967;52.070;8.596;2023-07-13T01:31:05;100300.66;;;17.44;71.51
55070;BME280;40967;52.070;8.596;2023-07-13T01:33:30;100306.94;;;17.45;71.81
55070;BME280;40967;52.070;8.596;2023-07-13T01:35:55;100306.94;;;17.45;71.77
55070;BME280;40967;52.070;8.596;2023-07-13T01:38:24;100302.59;;;17.44;72.00
55070;BME280;40967;52.070;8.596;2023-07-13T01:40:53;100287.06;;;17.39;72.10
55070;BME280;40967;52.070;8.596;2023-07-13T01:43:19;100290.63;;;17.40;72.85
55070;BME280;40967;52.070;8.596;2023-07-13T01:45:45;100292.72;;;17.34;73.00
55070;BME280;40967;52.070;8.596;2023-07-13T01:48:11;100297.91;;;17.44;72.78
55070;BME280;40967;52.070;8.596;2023-07-13T01:50:37;100305.38;;;17.52;73.11
55070;BME280;40967;52.070;8.596;2023-07-13T01:53:02;100307.47;;;17.55;72.58
55070;BME280;40967;52.070;8.596;2023-07-13T01:55:29;100297.97;;;17.53;72.43
55070;BME280;40967;52.070;8.596;2023-07-13T01:57:55;100292.16;;;17.54;72.09
55070;BME280;40967;52.070;8.596;2023-07-13T02:00:23;100300.22;;;17.68;71.98
55070;BME280;40967;52.070;8.596;2023-07-13T02:02:50;100306.84;;;17.75;72.11
55070;BME280;40967;52.070;8.596;2023-07-13T02:05:15;100298.78;;;17.79;72.10
55070;BME280;40967;52.070;8.596;2023-07-13T02:07:41;100299.75;;;17.74;72.03
55070;BME280;40967;52.070;8.596;2023-07-13T02:10:07;100312.03;;;17.85;72.10
55070;BME280;40967;52.070;8.596;2023-07-13T02:12:34;100311.22;;;17.85;72.06
55070;BME280;40967;52.070;8.596;2023-07-13T02:14:59;100263.25;;;17.57;71.91
55070;BME280;40967;52.070;8.596;2023-07-13T02:17:26;100294.91;;;17.80;71.83
55070;BME280;40967;52.070;8.596;2023-07-13T02:19:52;100295.72;;;17.80;72.17
55070;BME280;40967;52.070;8.596;2023-07-13T02:22:17;100303.47;;;17.78;72.02
55070;BME280;40967;52.070;8.596;2023-07-13T02:24:42;100305.88;;;17.88;71.96
55070;BME280;40967;52.070;8.596;2023-07-13T02:27:08;100299.25;;;17.81;71.84
55070;BME280;40967;52.070;8.596;2023-07-13T02:29:33;100314.13;;;17.88;71.90
55070;BME280;40967;52.070;8.596;2023-07-13T02:31:58;100311.38;;;17.88;71.84
55070;BME280;40967;52.070;8.596;2023-07-13T02:34:24;100285.41;;;17.77;71.59
55070;BME280;40967;52.070;8.596;2023-07-13T02:36:49;100293.63;;;17.77;71.24
55070;BME280;40967;52.070;8.596;2023-07-13T02:39:14;100299.75;;;17.83;71.10
55070;BME280;40967;52.070;8.596;2023-07-13T02:41:40;100308.13;;;17.86;70.97
55070;BME280;40967;52.070;8.596;2023-07-13T02:44:05;100296.38;;;17.77;70.74
55070;BME280;40967;52.070;8.596;2023-07-13T02:46:34;100281.84;;;17.68;70.74
55070;BME280;40967;52.070;8.596;2023-07-13T02:49:00;100282.28;;;17.62;70.93
55070;BME280;40967;52.070;8.596;2023-07-13T02:51:25;100294.75;;;17.68;71.09
55070;BME280;40967;52.070;8.596;2023-07-13T02:53:50;100300.72;;;17.70;71.07
55070;BME280;40967;52.070;8.596;2023-07-13T02:56:16;100302.66;;;17.69;71.25
55070;BME280;40967;52.070;8.596;2023-07-13T02:58:41;100306.69;;;17.63;71.40
55070;BME280;40967;52.070;8.596;2023-07-13T03:01:11;100296.66;;;17.50;71.12
55070;BME280;40967;52.070;8.596;2023-07-13T03:03:37;100299.50;;;17.45;71.65
55070;BME280;40967;52.070;8.596;2023-07-13T03:06:04;100311.63;;;17.44;71.78
55070;BME280;40967;52.070;8.596;2023-07-13T03:08:32;100315.78;;;17.33;72.04
55070;BME280;40967;52.070;8.596;2023-07-13T03:11:06;100304.44;;;17.18;72.34
55070;BME280;40967;52.070;8.596;2023-07-13T03:13:32;100294.91;;;17.15;72.53
55070;BME280;40967;52.070;8.596;2023-07-13T03:15:57;100313.84;;;17.25;72.82
55070;BME280;40967;52.070;8.596;2023-07-13T03:18:26;100318.84;;;17.23;72.43
55070;BME280;40967;52.070;8.596;2023-07-13T03:20:52;100329.81;;;17.23;72.33
55070;BME280;40967;52.070;8.596;2023-07-13T03:23:18;100311.50;;;17.10;72.18
55070;BME280;40967;52.070;8.596;2023-07-13T03:25:43;100296.78;;;16.97;72.17
55070;BME280;40967;52.070;8.596;2023-07-13T03:28:10;100317.16;;;17.05;72.10
55070;BME280;40967;52.070;8.596;2023-07-13T03:30:35;100329.59;;;17.11;72.39
55070;BME280;40967;52.070;8.596;2023-07-13T03:33:01;100322.59;;;16.96;72.95
55070;BME280;40967;52.070;8.596;2023-07-13T03:35:27;100326.16;;;16.97;73.50
55070;BME280;40967;52.070;8.596;2023-07-13T03:37:52;100317.72;;;16.85;73.48
55070;BME280;40967;52.070;8.596;2023-07-13T03:40:17;100324.66;;;16.91;73.83
55070;BME280;40967;52.070;8.596;2023-07-13T03:42:43;100316.91;;;16.84;73.64
55070;BME280;40967;52.070;8.596;2023-07-13T03:45:08;100336.75;;;16.90;73.42
55070;BME280;40967;52.070;8.596;2023-07-13T03:47:34;100325.63;;;16.86;73.40
55070;BME280;40967;52.070;8.596;2023-07-13T03:49:59;100322.69;;;16.83;73.38
55070;BME280;40967;52.070;8.596;2023-07-13T03:52:24;100335.25;;;16.84;73.66
55070;BME280;40967;52.070;8.596;2023-07-13T03:54:50;100319.09;;;16.74;73.44
55070;BME280;40967;52.070;8.596;2023-07-13T03:57:15;100339.47;;;16.81;73.83
55070;BME280;40967;52.070;8.596;2023-07-13T03:59:40;100335.41;;;16.79;74.16
55070;BME280;40967;52.070;8.596;2023-07-13T04:02:05;100341.34;;;16.72;74.87
55070;BME280;40967;52.070;8.596;2023-07-13T04:04:31;100338.28;;;16.74;75.56
55070;BME280;40967;52.070;8.596;2023-07-13T04:06:59;100352.63;;;16.71;76.30
55070;BME280;40967;52.070;8.596;2023-07-13T04:09:25;100343.03;;;16.60;76.41
55070;BME280;40967;52.070;8.596;2023-07-13T04:11:50;100359.53;;;16.68;76.21
55070;BME280;40967;52.070;8.596;2023-07-13T04:14:16;100362.56;;;16.67;76.76
55070;BME280;40967;52.070;8.596;2023-07-13T04:16:42;100339.13;;;16.52;77.54
55070;BME280;40967;52.070;8.596;2023-07-13T04:19:08;100356.41;;;16.61;78.03
55070;BME280;40967;52.070;8.596;2023-07-13T04:21:35;100357.41;;;16.65;77.96
55070;BME280;40967;52.070;8.596;2023-07-13T04:24:01;100345.28;;;16.58;77.81
55070;BME280;40967;52.070;8.596;2023-07-13T04:26:28;100341.25;;;16.55;78.27
55070;BME280;40967;52.070;8.596;2023-07-13T04:28:53;100347.81;;;16.54;78.53
55070;BME280;40967;52.070;8.596;2023-07-13T04:31:19;100370.25;;;16.56;79.06
55070;BME280;40967;52.070;8.596;2023-07-13T04:33:44;100366.22;;;16.54;79.33
55070;BME280;40967;52.070;8.596;2023-07-13T04:36:10;100361.03;;;16.52;79.09
55070;BME280;40967;52.070;8.596;2023-07-13T04:38:36;100372.34;;;16.59;79.02
55070;BME280;40967;52.070;8.596;2023-07-13T04:41:04;100370.88;;;16.53;78.60
55070;BME280;40967;52.070;8.596;2023-07-13T04:43:30;100379.41;;;16.52;78.55
55070;BME280;40967;52.070;8.596;2023-07-13T04:45:56;100376.91;;;16.42;78.46
55070;BME280;40967;52.070;8.596;2023-07-13T04:48:22;100379.31;;;16.43;78.11
55070;BME280;40967;52.070;8.596;2023-07-13T04:50:47;100380.22;;;16.39;77.80
55070;BME280;40967;52.070;8.596;2023-07-13T04:53:13;100373.97;;;16.38;77.57
55070;BME280;40967;52.070;8.596;2023-07-13T04:55:38;100364.44;;;16.36;77.25
55070;BME280;40967;52.070;8.596;2023-07-13T04:58:04;100357.75;;;16.28;76.76
55070;BME280;40967;52.070;8.596;2023-07-13T05:00:30;100364.94;;;16.38;76.46
55070;BME280;40967;52.070;8.596;2023-07-13T05:02:56;100371.59;;;16.45;76.31
55070;BME280;40967;52.070;8.596;2023-07-13T05:05:23;100380.31;;;16.47;76.04
55070;BME280;40967;52.070;8.596;2023-07-13T05:07:48;100380.50;;;16.51;76.08
55070;BME280;40967;52.070;8.596;2023-07-13T05:10:14;100382.94;;;16.52;75.89
55070;BME280;40967;52.070;8.596;2023-07-13T05:12:39;100369.97;;;16.44;75.65
55070;BME280;40967;52.070;8.596;2023-07-13T05:15:05;100376.97;;;16.50;75.48
55070;BME280;40967;52.070;8.596;2023-07-13T05:17:31;100377.78;;;16.51;75.00
55070;BME280;40967;52.070;8.596;2023-07-13T05:19:56;100380.56;;;16.59;74.59
55070;BME280;40967;52.070;8.596;2023-07-13T05:22:21;100381.25;;;16.65;74.49
55070;BME280;40967;52.070;8.596;2023-07-13T05:24:47;100398.38;;;16.70;74.52
55070;BME280;40967;52.070;8.596;2023-07-13T05:27:12;100393.41;;;16.72;74.40
55070;BME280;40967;52.070;8.596;2023-07-13T05:29:37;100380.34;;;16.69;74.09
55070;BME280;40967;52.070;8.596;2023-07-13T05:32:03;100362.91;;;16.65;73.96
55070;BME280;40967;52.070;8.596;2023-07-13T05:34:29;100383.13;;;16.78;73.87
55070;BME280;40967;52.070;8.596;2023-07-13T05:36:54;100391.72;;;16.85;73.89
55070;BME280;40967;52.070;8.596;2023-07-13T05:39:19;100394.63;;;16.88;73.61
55070;BME280;40967;52.070;8.596;2023-07-13T05:41:45;100396.56;;;16.88;73.53
55070;BME280;40967;52.070;8.596;2023-07-13T05:44:10;100375.22;;;16.76;73.78
55070;BME280;40967;52.070;8.596;2023-07-13T05:46:35;100391.03;;;16.79;73.81
55070;BME280;40967;52.070;8.596;2023-07-13T05:49:01;100391.22;;;16.83;73.86
55070;BME280;40967;52.070;8.596;2023-07-13T05:51:26;100401.22;;;16.87;73.94
55070;BME280;40967;52.070;8.596;2023-07-13T05:53:52;100400.44;;;16.87;73.78
55070;BME280;40967;52.070;8.596;2023-07-13T05:56:17;100397.06;;;16.90;73.91
55070;BME280;40967;52.070;8.596;2023-07-13T05:58:42;100412.22;;;16.96;73.83
55070;BME280;40967;52.070;8.596;2023-07-13T06:01:14;100399.94;;;16.85;73.83
55070;BME280;40967;52.070;8.596;2023-07-13T06:03:39;100413.03;;;16.96;73.66
55070;BME280;40967;52.070;8.596;2023-07-13T06:06:06;100413.72;;;17.02;73.26
55070;BME280;40967;52.070;8.596;2023-07-13T06:08:31;100410.34;;;17.05;73.52
55070;BME280;40967;52.070;8.596;2023-07-13T06:11:13;100417.94;;;17.08;73.29
55070;BME280;40967;52.070;8.596;2023-07-13T06:13:39;100419.06;;;17.07;73.05
55070;BME280;40967;52.070;8.596;2023-07-13T06:16:05;100416.00;;;17.09;73.34
55070;BME280;40967;52.070;8.596;2023-07-13T06:18:33;100405.69;;;17.06;73.14
55070;BME280;40967;52.070;8.596;2023-07-13T06:20:58;100417.38;;;17.20;73.23
55070;BME280;40967;52.070;8.596;2023-07-13T06:23:24;100398.53;;;17.27;72.78
55070;BME280;40967;52.070;8.596;2023-07-13T06:25:49;100407.50;;;17.49;72.03
55070;BME280;40967;52.070;8.596;2023-07-13T06:28:15;100423.06;;;17.71;71.71
55070;BME280;40967;52.070;8.596;2023-07-13T06:30:40;100420.47;;;17.74;72.08
55070;BME280;40967;52.070;8.596;2023-07-13T06:33:05;100426.13;;;17.78;72.37
55070;BME280;40967;52.070;8.596;2023-07-13T06:35:31;100409.34;;;17.79;72.01
55070;BME280;40967;52.070;8.596;2023-07-13T06:37:57;100424.41;;;17.90;72.41
55070;BME280;40967;52.070;8.596;2023-07-13T06:40:22;100427.47;;;17.97;72.02
55070;BME280;40967;52.070;8.596;2023-07-13T06:42:47;100438.16;;;18.07;72.18
55070;BME280;40967;52.070;8.596;2023-07-13T06:45:12;100443.50;;;18.21;72.02
55070;BME280;40967;52.070;8.596;2023-07-13T06:47:38;100432.34;;;18.17;72.14
55070;BME280;40967;52.070;8.596;2023-07-13T06:50:03;100430.25;;;18.23;72.35
55070;BME280;40967;52.070;8.596;2023-07-13T06:52:29;100435.75;;;18.14;72.53
55070;BME280;40967;52.070;8.596;2023-07-13T06:54:54;100392.28;;;17.82;73.22
55070;BME280;40967;52.070;8.596;2023-07-13T06:57:19;100432.00;;;18.10;73.52
55070;BME280;40967;52.070;8.596;2023-07-13T06:59:44;100431.56;;;18.17;73.66
55070;BME280;40967;52.070;8.596;2023-07-13T07:02:10;100440.13;;;18.16;73.87
55070;BME280;40967;52.070;8.596;2023-07-13T07:04:36;100433.97;;;18.27;73.83
55070;BME280;40967;52.070;8.596;2023-07-13T07:07:01;100432.09;;;18.45;73.34
55070;BME280;40967;52.070;8.596;2023-07-13T07:09:26;100421.56;;;18.38;72.90
55070;BME280;40967;52.070;8.596;2023-07-13T07:11:52;100450.66;;;18.56;73.13
55070;BME280;40967;52.070;8.596;2023-07-13T07:14:17;100446.94;;;18.61;72.77
55070;BME280;40967;52.070;8.596;2023-07-13T07:16:43;100441.91;;;18.71;72.25
55070;BME280;40967;52.070;8.596;2023-07-13T07:19:08;100429.50;;;18.57;72.07
55070;BME280;40967;52.070;8.596;2023-07-13T07:21:33;100452.59;;;18.73;72.16
55070;BME280;40967;52.070;8.596;2023-07-13T07:23:59;100437.56;;;18.62;71.57
55070;BME280;40967;52.070;8.596;2023-07-13T07:26:25;100449.53;;;18.66;71.81
55070;BME280;40967;52.070;8.596;2023-07-13T07:28:50;100441.75;;;18.68;71.70
55070;BME280;40967;52.070;8.596;2023-07-13T07:31:15;100462.09;;;18.84;71.73
55070;BME280;40967;52.070;8.596;2023-07-13T07:33:41;100454.31;;;19.03;70.84
55070;BME280;40967;52.070;8.596;2023-07-13T07:36:06;100454.91;;;19.34;70.31
55070;BME280;40967;52.070;8.596;2023-07-13T07:38:31;100446.56;;;19.51;69.35
55070;BME280;40967;52.070;8.596;2023-07-13T07:40:57;100454.78;;;19.68;68.62
55070;BME280;40967;52.070;8.596;2023-07-13T07:43:22;100456.81;;;19.80;67.98
55070;BME280;40967;52.070;8.596;2023-07-13T07:45:48;100415.41;;;19.68;67.77
55070;BME280;40967;52.070;8.596;2023-07-13T07:48:13;100456.56;;;19.93;67.39
55070;BME280;40967;52.070;8.596;2023-07-13T07:50:39;100460.19;;;19.85;67.34
55070;BME280;40967;52.070;8.596;2023-07-13T07:53:06;100453.19;;;19.88;67.17
55070;BME280;40967;52.070;8.596;2023-07-13T07:55:35;100465.16;;;19.92;66.84
55070;BME280;40967;52.070;8.596;2023-07-13T07:58:04;100441.59;;;19.82;67.03
55070;BME280;40967;52.070;8.596;2023-07-13T08:00:29;100445.03;;;20.00;66.57
55070;BME280;40967;52.070;8.596;2023-07-13T08:02:57;100447.31;;;19.98;66.33
55070;BME280;40967;52.070;8.596;2023-07-13T08:05:22;100433.59;;;19.89;66.69
55070;BME280;40967;52.070;8.596;2023-07-13T08:07:47;100448.53;;;20.09;67.29
55070;BME280;40967;52.070;8.596;2023-07-13T08:10:13;100452.16;;;20.30;66.96
55070;BME280;40967;52.070;8.596;2023-07-13T08:12:39;100453.16;;;20.46;66.39
55070;BME280;40967;52.070;8.596;2023-07-13T08:15:08;100466.03;;;20.75;65.47
55070;BME280;40967;52.070;8.596;2023-07-13T08:17:34;100459.78;;;20.86;64.56
55070;BME280;40967;52.070;8.596;2023-07-13T08:19:59;100454.00;;;21.00;63.78
55070;BME280;40967;52.070;8.596;2023-07-13T08:22:25;100453.56;;;21.10;64.12
55070;BME280;40967;52.070;8.596;2023-07-13T08:24:50;100459.16;;;21.01;63.44
55070;BME280;40967;52.070;8.596;2023-07-13T08:27:21;100452.63;;;21.06;63.18
55070;BME280;40967;52.070;8.596;2023-07-13T08:29:50;100471.88;;;21.26;62.57
55070;BME280;40967;52.070;8.596;2023-07-13T08:32:18;100473.84;;;21.38;62.38
55070;BME280;40967;52.070;8.596;2023-07-13T08:34:44;100469.94;;;21.39;62.28
55070;BME280;40967;52.070;8.596;2023-07-13T08:37:09;100462.09;;;21.29;62.29
55070;BME280;40967;52.070;8.596;2023-07-13T08:39:35;100469.03;;;21.35;61.68
55070;BME280;40967;52.070;8.596;2023-07-13T08:42:05;100468.94;;;21.43;61.21
55070;BME280;40967;52.070;8.596;2023-07-13T08:47:01;100452.50;;;21.59;59.96
55070;BME280;40967;52.070;8.596;2023-07-13T08:49:27;100454.56;;;21.74;59.09
55070;BME280;40967;52.070;8.596;2023-07-13T08:52:51;100452.88;;;21.94;57.78
55070;BME280;40967;52.070;8.596;2023-07-13T08:54:52;100472.78;;;21.99;57.40
55070;BME280;40967;52.070;8.596;2023-07-13T08:57:24;100443.31;;;21.79;57.26
55070;BME280;40967;52.070;8.596;2023-07-13T08:59:53;100460.78;;;21.71;57.22
55070;BME280;40967;52.070;8.596;2023-07-13T09:05:03;100457.66;;;21.73;57.85
55070;BME280;40967;52.070;8.596;2023-07-13T09:10:27;100455.13;;;21.56;58.10
55070;BME280;40967;52.070;8.596;2023-07-13T09:15:56;100462.66;;;21.79;56.66
55070;BME280;40967;52.070;8.596;2023-07-13T09:23:37;100459.63;;;22.08;57.31
55070;BME280;40967;52.070;8.596;2023-07-13T09:26:11;100460.75;;;22.31;56.75
55070;BME280;40967;52.070;8.596;2023-07-13T09:28:43;100452.16;;;22.48;55.77
55070;BME280;40967;52.070;8.596;2023-07-13T09:31:24;100453.59;;;22.55;55.29
55070;BME280;40967;52.070;8.596;2023-07-13T09:33:51;100448.81;;;22.27;55.18
55070;BME280;40967;52.070;8.596;2023-07-13T09:36:20;100463.75;;;22.26;55.49
55070;BME280;40967;52.070;8.596;2023-07-13T09:38:48;100464.59;;;22.15;55.73
55070;BME280;40967;52.070;8.596;2023-07-13T09:41:39;100450.69;;;21.87;56.22
55070;BME280;40967;52.070;8.596;2023-07-13T09:46:31;100456.16;;;21.51;55.76
55070;BME280;40967;52.070;8.596;2023-07-13T09:48:57;100454.31;;;21.55;55.78
55070;BME280;40967;52.070;8.596;2023-07-13T09:51:22;100450.75;;;21.55;55.35
55070;BME280;40967;52.070;8.596;2023-07-13T09:53:49;100461.59;;;21.60;54.82
55070;BME280;40967;52.070;8.596;2023-07-13T09:56:27;100469.53;;;21.73;54.92
55070;BME280;40967;52.070;8.596;2023-07-13T09:58:52;100463.56;;;21.95;54.44
55070;BME280;40967;52.070;8.596;2023-07-13T10:01:35;100469.31;;;22.14;53.64
55070;BME280;40967;52.070;8.596;2023-07-13T10:04:02;100477.56;;;22.38;53.42
55070;BME280;40967;52.070;8.596;2023-07-13T10:06:36;100447.81;;;22.60;52.56
55070;BME280;40967;52.070;8.596;2023-07-13T10:09:01;100466.13;;;22.92;51.74
55070;BME280;40967;52.070;8.596;2023-07-13T10:11:30;100471.00;;;23.26;50.64
55070;BME280;40967;52.070;8.596;2023-07-13T10:14:01;100463.75;;;23.49;49.18
55070;BME280;40967;52.070;8.596;2023-07-13T10:16:32;100457.38;;;23.33;48.86
55070;BME280;40967;52.070;8.596;2023-07-13T10:19:01;100446.88;;;23.11;49.65
55070;BME280;40967;52.070;8.596;2023-07-13T10:21:35;100464.72;;;23.41;49.97
55070;BME280;40967;52.070;8.596;2023-07-13T10:24:10;100456.66;;;23.51;49.46
55070;BME280;40967;52.070;8.596;2023-07-13T10:26:39;100455.84;;;23.51;49.54
55070;BME280;40967;52.070;8.596;2023-07-13T10:29:11;100451.94;;;23.52;48.54
55070;BME280;40967;52.070;8.596;2023-07-13T10:31:39;100480.38;;;23.80;47.65
55070;BME280;40967;52.070;8.596;2023-07-13T10:34:09;100474.81;;;23.80;47.51
55070;BME280;40967;52.070;8.596;2023-07-13T10:36:41;100455.84;;;23.82;47.25
55070;BME280;40967;52.070;8.596;2023-07-13T10:39:17;100446.84;;;23.85;47.45
55070;BME280;40967;52.070;8.596;2023-07-13T10:41:44;100480.78;;;23.98;47.13
55070;BME280;40967;52.070;8.596;2023-07-13T10:44:29;100473.00;;;24.03;47.75
55070;BME280;40967;52.070;8.596;2023-07-13T10:46:58;100473.47;;;23.90;47.96
55070;BME280;40967;52.070;8.596;2023-07-13T10:49:25;100479.28;;;23.69;48.88
55070;BME280;40967;52.070;8.596;2023-07-13T10:51:51;100482.78;;;23.66;49.47
55070;BME280;40967;52.070;8.596;2023-07-13T10:54:32;100477.59;;;23.80;49.86
55070;BME280;40967;52.070;8.596;2023-07-13T10:59:43;100489.34;;;23.93;47.92
55070;BME280;40967;52.070;8.596;2023-07-13T11:02:25;100494.81;;;23.74;48.38
55070;BME280;40967;52.070;8.596;2023-07-13T11:04:53;100475.59;;;23.65;48.43
55070;BME280;40967;52.070;8.596;2023-07-13T11:07:27;100491.16;;;23.85;48.37
55070;BME280;40967;52.070;8.596;2023-07-13T11:09:57;100483.41;;;23.91;48.79
55070;BME280;40967;52.070;8.596;2023-07-13T11:22:45;100484.13;;;24.57;47.46
55070;BME280;40967;52.070;8.596;2023-07-13T11:27:46;100472.94;;;25.07;45.97
55070;BME280;40967;52.070;8.596;2023-07-13T11:30:31;100469.22;;;25.41;44.71
55070;BME280;40967;52.070;8.596;2023-07-13T11:35:44;100466.03;;;25.39;43.17
55070;BME280;40967;52.070;8.596;2023-07-13T11:38:17;100464.19;;;25.47;43.24
55070;BME280;40967;52.070;8.596;2023-07-13T11:40:47;100469.38;;;25.29;43.38
55070;BME280;40967;52.070;8.596;2023-07-13T11:43:15;100474.19;;;24.91;44.33
55070;BME280;40967;52.070;8.596;2023-07-13T11:45:41;100462.91;;;24.45;45.09
55070;BME280;40967;52.070;8.596;2023-07-13T11:48:21;100478.38;;;24.12;46.19
55070;BME280;40967;52.070;8.596;2023-07-13T11:50:53;100482.06;;;24.00;46.79
55070;BME280;40967;52.070;8.596;2023-07-13T11:53:20;100480.50;;;24.18;46.66
55070;BME280;40967;52.070;8.596;2023-07-13T11:55:47;100475.66;;;24.15;46.85
55070;BME280;40967;52.070;8.596;2023-07-13T11:58:17;100466.97;;;24.32;46.63
55070;BME280;40967;52.070;8.596;2023-07-13T12:00:43;100478.09;;;24.51;45.93
55070;BME280;40967;52.070;8.596;2023-07-13T12:03:11;100476.66;;;24.77;45.35
55070;BME280;40967;52.070;8.596;2023-07-13T12:05:55;100463.06;;;24.91;44.93
55070;BME280;40967;52.070;8.596;2023-07-13T12:08:22;100461.34;;;24.83;45.03
55070;BME280;40967;52.070;8.596;2023-07-13T12:10:47;100468.31;;;24.96;44.50
55070;BME280;40967;52.070;8.596;2023-07-13T12:13:13;100475.09;;;25.36;44.08
55070;BME280;40967;52.070;8.596;2023-07-13T12:15:40;100469.28;;;25.67;43.48
55070;BME280;40967;52.070;8.596;2023-07-13T12:18:18;100482.66;;;25.85;43.03
55070;BME280;40967;52.070;8.596;2023-07-13T12:20:45;100464.75;;;25.82;41.84
55070;BME280;40967;52.070;8.596;2023-07-13T12:23:23;100469.06;;;26.02;41.45
55070;BME280;40967;52.070;8.596;2023-07-13T12:25:50;100463.38;;;25.27;42.90
55070;BME280;40967;52.070;8.596;2023-07-13T12:29:06;100491.41;;;25.00;43.83
55070;BME280;40967;52.070;8.596;2023-07-13T12:31:22;100485.13;;;24.84;44.55
55070;BME280;40967;52.070;8.596;2023-07-13T12:33:56;100483.19;;;24.49;44.77
55070;BME280;40967;52.070;8.596;2023-07-13T12:36:22;100475.06;;;24.22;45.73
55070;BME280;40967;52.070;8.596;2023-07-13T12:38:47;100465.22;;;24.09;46.10
55070;BME280;40967;52.070;8.596;2023-07-13T12:41:14;100480.88;;;24.17;45.88
55070;BME280;40967;52.070;8.596;2023-07-13T12:43:40;100467.03;;;24.17;45.65
55070;BME280;40967;52.070;8.596;2023-07-13T12:46:18;100487.84;;;24.11;45.59
55070;BME280;40967;52.070;8.596;2023-07-13T12:48:48;100471.84;;;23.89;45.67
55070;BME280;40967;52.070;8.596;2023-07-13T12:51:15;100461.13;;;23.87;45.93
55070;BME280;40967;52.070;8.596;2023-07-13T12:53:47;100465.59;;;23.92;45.16
55070;BME280;40967;52.070;8.596;2023-07-13T12:56:19;100471.13;;;24.07;45.06
55070;BME280;40967;52.070;8.596;2023-07-13T12:58:47;100481.69;;;24.02;44.63
55070;BME280;40967;52.070;8.596;2023-07-13T13:01:16;100469.53;;;23.91;44.59
55070;BME280;40967;52.070;8.596;2023-07-13T13:03:46;100479.38;;;24.04;44.95
55070;BME280;40967;52.070;8.596;2023-07-13T13:08:45;100487.13;;;24.14;45.15
55070;BME280;40967;52.070;8.596;2023-07-13T13:11:10;100465.06;;;23.86;44.94
55070;BME280;40967;52.070;8.596;2023-07-13T13:13:36;100467.91;;;23.90;45.18
55070;BME280;40967;52.070;8.596;2023-07-13T13:16:09;100477.94;;;23.94;45.20
55070;BME280;40967;52.070;8.596;2023-07-13T13:18:36;100483.41;;;24.06;44.96
55070;BME280;40967;52.070;8.596;2023-07-13T13:21:01;100484.72;;;23.97;44.93
55070;BME280;40967;52.070;8.596;2023-07-13T13:23:28;100482.88;;;23.70;44.76
55070;BME280;40967;52.070;8.596;2023-07-13T13:25:53;100497.31;;;23.63;45.00
55070;BME280;40967;52.070;8.596;2023-07-13T13:28:20;100497.56;;;23.42;44.40
55070;BME280;40967;52.070;8.596;2023-07-13T13:30:49;100507.06;;;23.41;44.78